Paso Robles, California
Current Conditions -  °F | °C
As of 8:53 PM on Saturday 25 Oct 2014 (Local Time) from KPRB Reporting Station
Clear Clear  
Wind Chill: 17°   Ceiling: Unl
Heat Index: 17°   Visibility: 10mi
Dew Point:   Wind: 10mph
Humidity: 62%   Direction: 320°NW
Pressure: 30.08"   Gusts: NA
Location:  35.67°N, 120.63°W
Report Text: KPRB 260353Z AUTO 32009KT 10SM CLR 17/09 A3008 RMK AO2 SLP184 T01670094 TSNO
Loading
Personal Weather Stations






























Interactive Weather Map
Tropical Storm Tracking
New forecast layout! Learn more

10-Day Weather Forecast

Advertisements
Track Severe Weather on mobile